Mataguay (212) Station Data

Red Flag Warning: No
Fire Weather Zone: 258
SDGE Region: Ramona
Lat/Lon: 33.223/-116.699

Observations

Time Wind Speed/Gust Temp(F) RH Fuel Moist Fuel Temp(F) Dewpt(F) Tmax(F) Tmin(F) Accum Precip 10-min Precip SL Press(mb)
4/26 2:40am 129 1 G 2 46° 90% - - 44° 49.6° 45.4° - - 991.0
4/26 2:30am 28 0 G 1 47° 91% - - 45° 49.6° 45.8° - - 992.0
4/26 2:20am 185 1 G 2 47° 90% - - 44° 49.6° 45.8° - - 991.0
4/26 2:10am 173 2 G 2 46° 89% - - 43° 49.6° 45.8° - - 991.0
4/26 2:00am 37 1 G 2 47° 87% - - 43° 49.6° 45.8° - - 990.0
4/26 1:50am 66 1 G 2 47° 88% - - 44° 49.6° 46.8° - - 990.0
4/26 1:40am 56 1 G 2 47° 87% - - 44° 49.6° 46.8° - - 990.0
4/26 1:30am 49 1 G 3 48° 87% - - 44° 49.6° 47.1° - - 990.0
4/26 1:20am 193 1 G 2 48° 86% - - 44° 49.6° 47.1° - - 990.0
4/26 1:10am 175 1 G 2 48° 86% - - 44° 49.6° 47.7° - - 990.0
4/26 1:00am 172 1 G 3 48° 85% - - 44° 49.6° 47.7° - - 989.0
4/26 12:50am 177 2 G 4 49° 85% - - 44° 49.6° 47.9° - - 989.0
4/26 12:40am 122 0 G 2 48° 84% - - 44° 49.6° 47.9° - - 989.0
4/26 12:30am 292 1 G 2 49° 84% - - 44° 49.6° 47.9° - - 989.0
4/26 12:20am 256 1 G 2 49° 84% - - 45° 49.6° 47.9° - - 989.0
4/26 12:10am 162 1 G 2 49° 85% - - 44° 49.3° 47.9° - - 990.0
4/26 12:00am 197 1 G 3 48° 84% - - 43° 62.8° 47.4° - - 989.0
4/25 11:50pm 220 1 G 2 48° 82% - - 43° 62.8° 47.5° - - 988.0
4/25 11:40pm 109 1 G 3 49° 80% - - 43° 62.8° 48° - - 987.0
4/25 11:30pm 82 2 G 4 51° 81% - - 45° 62.8° 49.2° - - 988.0
4/25 11:20pm 91 4 G 5 51° 79% - - 45° 62.8° 49.2° - - 987.0
4/25 11:10pm 93 1 G 2 52° 79% - - 46° 62.8° 49.2° - - 988.0
4/25 11:00pm 109 2 G 4 51° 80% - - 45° 62.8° 49.2° - - 988.0
4/25 10:50pm 89 3 G 4 51° 79% - - 45° 62.8° 49.2° - - 987.0
4/25 10:40pm 82 3 G 4 51° 78% - - 45° 62.8° 49.2° - - 987.0
4/25 10:30pm 102 2 G 3 52° 78% - - 45° 62.8° 49.2° - - 987.0
4/25 10:20pm 124 1 G 3 52° 78% - - 46° 62.8° 49.2° - - 987.0
4/25 10:10pm 178 1 G 2 52° 78% - - 45° 62.8° 49.2° - - 987.0
4/25 10:00pm 127 3 G 4 52° 78% - - 45° 62.8° 49.2° - - 987.0
4/25 9:50pm 124 3 G 4 52° 79% - - 45° 62.8° 49.2° - - 988.0
4/25 9:40pm 154 2 G 3 51° 79% - - 45° 62.8° 49.2° - - 988.0
4/25 9:30pm 137 2 G 3 51° 79% - - 45° 62.8° 49.2° - - 988.0
4/25 9:20pm 174 3 G 4 51° 80% - - 45° 62.8° 49.2° - - 988.0
4/25 9:10pm 186 3 G 5 51° 79% - - 45° 62.8° 49.2° - - 987.0
4/25 9:00pm 213 2 G 4 52° 78% - - 45° 62.8° 49.2° - - 987.0
4/25 8:50pm 213 3 G 5 53° 77% - - 46° 62.8° 49.2° - - 987.0
4/25 8:40pm 207 4 G 6 53° 77% - - 46° 62.8° 49.2° - - 987.0
4/25 8:30pm 182 7 G 10 54° 76% - - 46° 62.8° 49.2° - - 987.0
4/25 8:20pm 176 9 G 13 54° 76% - - 46° 62.8° 49.2° - - 987.0
4/25 8:10pm 180 9 G 13 54° 75% - - 46° 62.8° 49.2° - - 987.0
4/25 8:00pm 175 11 G 15 54° 75% - - 47° 62.8° 49.2° - - 987.0
4/25 7:50pm 174 11 G 16 55° 75% - - 47° 62.8° 49.2° - - 987.0
4/25 7:40pm 169 10 G 14 55° 74% - - 47° 62.8° 49.2° - - 986.0
4/25 7:30pm 187 8 G 14 55° 73% - - 47° 62.8° 49.2° - - 986.0
4/25 7:20pm 210 7 G 11 56° 72% - - 47° 62.8° 49.2° - - 986.0
4/25 7:10pm 205 7 G 11 57° 69% - - 47° 62.8° 49.2° - - 985.0
4/25 7:00pm 231 7 G 10 57° 68% - - 47° 62.8° 49.2° - - 985.0
4/25 6:50pm 222 9 G 15 58° 68% - - 47° 62.8° 49.2° - - 984.0
4/25 6:40pm 232 10 G 15 58° 67% - - 47° 62.8° 49.2° - - 984.0
4/25 6:30pm 243 10 G 14 58° 67% - - 47° 62.8° 49.2° - - 984.0
4/25 6:20pm 233 9 G 13 58° 66% - - 47° 62.8° 49.2° - - 984.0
4/25 6:10pm 221 8 G 13 59° 65% - - 47° 62.8° 49.2° - - 983.0
4/25 6:00pm 220 10 G 14 59° 65% - - 47° 62.8° 49.2° - - 983.0
4/25 5:50pm 217 10 G 16 59° 66% - - 47° 62.8° 49.2° - - 984.0
4/25 5:40pm 229 11 G 16 59° 65% - - 47° 62.8° 49.2° - - 983.0
4/25 5:30pm 240 11 G 16 59° 64% - - 47° 62.8° 49.2° - - 983.0
4/25 5:20pm 229 11 G 17 59° 63% - - 47° 62.8° 49.2° - - 983.0
4/25 5:10pm 228 13 G 18 60° 61% - - 46° 62.8° 49.2° - - 982.0
4/25 5:00pm 220 12 G 18 60° 60% - - 46° 62.8° 49.2° - - 982.0
4/25 4:50pm 222 12 G 18 61° 60% - - 47° 62.8° 49.2° - - 982.0
4/25 4:40pm 221 12 G 17 60° 60% - - 46° 62.8° 49.2° - - 982.0
4/25 4:30pm 223 14 G 20 60° 60% - - 46° 62.8° 49.2° - - 982.0
4/25 4:20pm 229 14 G 20 61° 58% - - 46° 62.8° 49.2° - - 981.0
4/25 4:10pm 223 11 G 21 61° 59% - - 46° 62.8° 49.2° - - 981.0
4/25 4:00pm 230 12 G 19 60° 60% - - 46° 62.8° 49.2° - - 982.0
4/25 3:50pm 236 13 G 19 60° 62% - - 47° 62.8° 49.2° - - 983.0
4/25 3:40pm 231 15 G 22 59° 62% - - 47° 62.8° 49.2° - - 983.0
4/25 3:30pm 230 14 G 20 60° 61% - - 47° 62.8° 49.2° - - 982.0
4/25 3:20pm 234 16 G 23 60° 61% - - 46° 62.8° 49.2° - - 982.0
4/25 3:10pm 232 16 G 21 60° 60% - - 46° 62.8° 49.2° - - 982.0
4/25 3:00pm 225 16 G 22 60° 60% - - 46° 62.8° 49.2° - - 982.0
4/25 2:50pm 224 18 G 23 61° 59% - - 46° 62.8° 49.2° - - 982.0
4/25 2:40pm 215 13 G 22 61° 57% - - 46° 62.8° 49.2° - - 981.0
4/25 2:30pm 219 15 G 21 61° 57% - - 46° 62.8° 49.2° - - 981.0
4/25 2:20pm 236 16 G 22 62° 56% - - 46° 62.8° 49.2° - - 981.0
4/25 2:10pm 261 14 G 20 62° 54% - - 45° 62.8° 49.2° - - 980.0
4/25 2:00pm 265 15 G 19 61° 53% - - 44° 62.8° 49.2° - - 979.0
4/25 1:50pm 265 14 G 20 62° 51% - - 44° 62.8° 49.2° - - 979.0
4/25 1:40pm 264 14 G 18 62° 50% - - 43° 62.1° 49.2° - - 978.0
4/25 1:30pm 263 14 G 18 61° 51% - - 43° 62° 49.2° - - 978.0
4/25 1:20pm 262 14 G 20 61° 52% - - 43° 62° 49.2° - - 979.0
4/25 1:10pm 241 14 G 24 61° 53% - - 44° 61.6° 49.2° - - 979.0
4/25 1:00pm 245 14 G 21 61° 53% - - 44° 61.6° 49.2° - - 979.0
4/25 12:50pm 228 15 G 23 61° 54% - - 44° 61.3° 49.2° - - 979.0
4/25 12:40pm 248 16 G 22 60° 55% - - 44° 60.7° 49.2° - - 980.0
4/25 12:30pm 240 16 G 23 60° 55% - - 43° 60.7° 49.2° - - 980.0
4/25 12:20pm 235 16 G 21 59° 55% - - 43° 60.7° 49.2° - - 980.0
4/25 12:10pm 226 14 G 22 60° 54% - - 43° 60.7° 49.2° - - 979.0
4/25 12:00pm 242 12 G 17 59° 56% - - 43° 60.1° 49.2° - - 980.0
4/25 11:50am 232 9 G 15 59° 57% - - 43° 59.6° 49.2° - - 980.0
4/25 11:40am 225 12 G 18 58° 59% - - 44° 59.6° 49.2° - - 981.0
4/25 11:30am 229 14 G 19 57° 60% - - 43° 57.7° 49.2° - - 981.0
4/25 11:20am 228 11 G 18 57° 59% - - 43° 57.7° 49.2° - - 981.0
4/25 11:10am 240 12 G 17 57° 60% - - 43° 57.7° 49.2° - - 981.0
4/25 11:00am 231 11 G 18 57° 60% - - 43° 57.6° 49.2° - - 981.0
4/25 10:50am 248 14 G 19 56° 61% - - 43° 57.6° 49.2° - - 981.0
4/25 10:40am 233 13 G 21 56° 61% - - 43° 57.6° 49.2° - - 981.0
4/25 10:30am 239 12 G 17 56° 61% - - 43° 57.4° 49.2° - - 981.0
4/25 10:20am 232 15 G 22 56° 62% - - 43° 56.5° 49.2° - - 982.0
4/25 10:10am 242 15 G 22 55° 62% - - 43° 55.7° 49.2° - - 982.0
4/25 10:00am 240 13 G 22 55° 64% - - 43° 55.6° 49.2° - - 982.0
4/25 9:50am 236 15 G 22 55° 63% - - 43° 55.4° 49.2° - - 982.0
4/25 9:40am 234 15 G 22 54° 66% - - 43° 54.9° 49.2° - - 983.0
4/25 9:30am 227 14 G 20 54° 67% - - 43° 54.7° 49.2° - - 983.0
4/25 9:20am 230 15 G 20 54° 68% - - 44° 54.5° 49.2° - - 984.0
4/25 9:10am 229 17 G 25 53° 70% - - 44° 53.7° 49.2° - - 984.0
4/25 9:00am 229 18 G 24 53° 70% - - 43° 53.5° 49.2° - - 984.0
4/25 8:50am 230 17 G 25 53° 70% - - 44° 53.5° 49.2° - - 984.0
4/25 8:40am 230 16 G 21 53° 70% - - 43° 53.2° 49.2° - - 984.0
4/25 8:30am 226 13 G 20 53° 72% - - 44° 53° 49.2° - - 985.0
4/25 8:20am 221 14 G 21 53° 73% - - 44° 52.8° 49.2° - - 985.0
4/25 8:10am 221 14 G 20 52° 75% - - 44° 52.4° 49.2° - - 986.0
4/25 8:00am 225 15 G 21 52° 75% - - 44° 52.3° 49.2° - - 986.0
4/25 7:50am 229 14 G 19 52° 75% - - 44° 52.3° 49.2° - - 986.0
4/25 7:40am 219 11 G 17 51° 77% - - 45° 51.9° 49.2° - - 987.0
4/25 7:30am 217 10 G 16 51° 79% - - 45° 51.3° 49.2° - - 988.0
4/25 7:20am 215 12 G 18 51° 80% - - 45° 51.1° 49.2° - - 988.0
4/25 7:10am 224 12 G 17 50° 81% - - 45° 50.8° 49.2° - - 988.0
4/25 7:00am 231 16 G 25 50° 81% - - 45° 50.7° 49.2° - - 988.0
4/25 6:50am 217 13 G 18 50° 81% - - 45° 50.7° 49.2° - - 988.0
4/25 6:40am 222 15 G 19 50° 81% - - 45° 50.7° 49.2° - - 988.0
4/25 6:30am 229 14 G 20 50° 80% - - 45° 50.7° 49.2° - - 988.0
4/25 6:20am 223 15 G 20 50° 80% - - 45° 50.7° 49.2° - - 988.0
4/25 6:10am 214 13 G 18 50° 81% - - 45° 50.7° 49.2° - - 988.0
4/25 6:00am 220 14 G 21 50° 80% - - 44° 50.7° 49.2° - - 988.0
4/25 5:50am 222 15 G 19 50° 81% - - 44° 50.7° 49.2° - - 988.0
4/25 5:40am 220 11 G 18 50° 80% - - 45° 50.7° 49.2° - - 988.0
4/25 5:30am 220 13 G 18 50° 81% - - 45° 50.7° 49.2° - - 988.0
4/25 5:20am 223 12 G 15 50° 81% - - 45° 50.7° 49.2° - - 988.0
4/25 5:10am 226 13 G 15 50° 81% - - 45° 50.7° 49.2° - - 988.0
4/25 5:00am 211 9 G 13 50° 81% - - 45° 50.7° 49.2° - - 988.0
4/25 4:50am 222 9 G 15 50° 84% - - 45° 50.5° 49.2° - - 989.0
4/25 4:40am 218 8 G 11 50° 84% - - 46° 50.5° 49.2° - - 989.0
4/25 4:30am 218 8 G 14 50° 84% - - 46° 50.5° 49.2° - - 989.0
4/25 4:20am 220 8 G 12 50° 84% - - 46° 50.5° 49.2° - - 989.0
4/25 4:10am 202 7 G 13 50° 84% - - 46° 50.5° 49.2° - - 990.0
4/25 4:00am 223 9 G 14 50° 85% - - 46° 50.5° 49.2° - - 990.0
4/25 3:50am 230 10 G 16 50° 84% - - 46° 50.5° 49.2° - - 989.0
4/25 3:40am 208 9 G 14 50° 83% - - 45° 50.5° 49.2° - - 989.0
4/25 3:30am 212 11 G 17 50° 83% - - 45° 50.4° 49.2° - - 989.0
4/25 3:20am 214 10 G 14 50° 84% - - 46° 50.4° 49.2° - - 990.0
4/25 3:10am 218 11 G 16 50° 87% - - 46° 50.2° 49.2° - - 991.0
4/25 3:00am 229 11 G 15 50° 88% - - 46° 50.2° 49.2° - - 991.0
4/25 2:50am 234 12 G 16 50° 88% - - 46° 50.2° 49.2° - - 991.0
4/25 2:40am 229 11 G 16 50° 89% - - 46° 50.2° 49.2° - - 991.0
4/25 2:30am 192 11 G 21 49° 89% - - 46° 50.2° 49.2° - - 991.0
4/25 2:20am 203 12 G 17 49° 89% - - 46° 50.2° 49.3° - - 991.0
4/25 2:10am 207 10 G 15 50° 88% - - 46° 50.2° 49.4° - - 991.0
4/25 2:00am 207 9 G 12 50° 88% - - 47° 50.2° 49.4° - - 991.0
4/25 1:50am 196 8 G 13 50° 87% - - 46° 50.2° 49.4° - - 991.0
4/25 1:40am 192 7 G 10 50° 85% - - 46° 50.2° 49.4° - - 990.0
4/25 1:30am 213 9 G 14 50° 85% - - 46° 50.2° 49.4° - - 990.0
4/25 1:20am 197 9 G 14 50° 84% - - 45° 50.2° 49.4° - - 990.0
4/25 1:10am 204 10 G 14 50° 85% - - 46° 50.2° 49.4° - - 990.0
4/25 1:00am 205 12 G 17 50° 87% - - 46° 50.1° 49.4° - - 990.0
4/25 12:50am 205 11 G 18 50° 89% - - 46° 50.1° 49.4° - - 991.0
4/25 12:40am 205 11 G 16 50° 90% - - 47° 50.1° 49.4° - - 992.0
4/25 12:30am 220 13 G 18 50° 90% - - 47° 50.1° 49.4° - - 992.0
4/25 12:20am 219 11 G 16 50° 89% - - 47° 50.1° 49.6° - - 991.0
4/25 12:10am 203 10 G 16 50° 87% - - 46° 50.1° 49.6° - - 991.0
4/25 12:00am 192 13 G 20 50° 83% - - 46° 66.4° 41.4° - - 989.0
4/24 11:50pm 196 11 G 22 51° 80% - - 45° 66.4° 41.4° - - 988.0
4/24 11:40pm 202 13 G 20 51° 81% - - 45° 66.4° 41.4° - - 988.0
4/24 11:30pm 216 15 G 22 51° 81% - - 45° 66.4° 41.4° - - 988.0
4/24 11:20pm 225 17 G 22 51° 80% - - 45° 66.4° 41.4° - - 988.0
4/24 11:10pm 228 17 G 23 51° 79% - - 45° 66.4° 41.4° - - 988.0
4/24 11:00pm 236 14 G 21 52° 79% - - 45° 66.4° 41.4° - - 988.0
4/24 10:50pm 237 13 G 18 52° 77% - - 45° 66.4° 41.4° - - 987.0
4/24 10:40pm 234 12 G 17 52° 76% - - 45° 66.4° 41.4° - - 986.0
4/24 10:30pm 206 10 G 15 52° 75% - - 45° 66.4° 41.4° - - 986.0
4/24 10:20pm 206 10 G 15 52° 76% - - 45° 66.4° 41.4° - - 987.0
4/24 10:10pm 201 10 G 16 52° 77% - - 45° 66.4° 41.4° - - 987.0
4/24 10:00pm 205 11 G 18 52° 77% - - 45° 66.4° 41.4° - - 987.0
4/24 9:50pm 198 11 G 17 52° 76% - - 45° 66.4° 41.4° - - 986.0
4/24 9:40pm 196 12 G 20 52° 75% - - 45° 66.4° 41.4° - - 986.0
4/24 9:30pm 191 12 G 17 52° 75% - - 45° 66.4° 41.4° - - 986.0
4/24 9:20pm 195 11 G 16 52° 76% - - 45° 66.4° 41.4° - - 987.0
4/24 9:10pm 198 11 G 16 52° 76% - - 45° 66.4° 41.4° - - 987.0
4/24 9:00pm 194 12 G 16 53° 76% - - 45° 66.4° 41.4° - - 987.0
4/24 8:50pm 190 14 G 20 53° 76% - - 45° 66.4° 41.4° - - 986.0
4/24 8:40pm 191 13 G 19 53° 75% - - 45° 66.4° 41.4° - - 986.0
4/24 8:30pm 193 12 G 18 53° 75% - - 45° 66.4° 41.4° - - 986.0
4/24 8:20pm 196 12 G 18 53° 76% - - 46° 66.4° 41.4° - - 987.0
4/24 8:10pm 192 12 G 17 54° 75% - - 46° 66.4° 41.4° - - 987.0
4/24 8:00pm 197 11 G 15 54° 75% - - 46° 66.4° 41.4° - - 986.0
4/24 7:50pm 203 10 G 17 54° 73% - - 46° 66.4° 41.4° - - 986.0
4/24 7:40pm 205 10 G 15 54° 73% - - 46° 66.4° 41.4° - - 986.0
4/24 7:30pm 209 12 G 19 55° 73% - - 46° 66.4° 41.4° - - 986.0
4/24 7:20pm 212 12 G 17 55° 72% - - 46° 66.4° 41.4° - - 986.0
4/24 7:10pm 215 15 G 21 55° 72% - - 47° 66.4° 41.4° - - 986.0
4/24 7:00pm 215 16 G 23 56° 71% - - 47° 66.4° 41.4° - - 985.0
4/24 6:50pm 209 14 G 21 56° 69% - - 46° 66.4° 41.4° - - 984.0
4/24 6:40pm 202 14 G 23 57° 68% - - 46° 66.4° 41.4° - - 984.0
4/24 6:30pm 205 13 G 20 57° 67% - - 46° 66.4° 41.4° - - 984.0
4/24 6:20pm 205 13 G 20 57° 67% - - 46° 66.4° 41.4° - - 984.0
4/24 6:10pm 212 14 G 20 58° 65% - - 46° 66.4° 41.4° - - 983.0
4/24 6:00pm 213 13 G 19 58° 64% - - 46° 66.4° 41.4° - - 983.0